Flight Track Log - Related Links

Times and Time Zones

All times are in EDT time to prevent confusion due to time zone crossing. See the BJS542 flight status page for this flight to view local times or setup timezone preferences in your user account.

Time Position Orientation Groundspeed Altitude Reporting Facility
EDT Latitude Longitude Course Direction KTS MPH feet Rate Location/Type
Thu 03:04:29 PM 40.0500 -86.2500 360° North 163 188 2,200  Level Indianapolis TRACON
Thu 03:05:05 PM 40.0833 -86.2500 360° North 177 204 3,000 1,091 Climbing Indianapolis TRACON
Thu 03:05:35 PM 40.1028 -86.2567 345° North 197 227 3,400 1,652 Climbing Chicago Center
Thu 03:06:14 PM 40.1406 -86.2489 North 214 246 4,900 3,420 Climbing Indianapolis Center
Thu 03:07:15 PM 40.2125 -86.2494 360° North 247 284 9,100 4,488 Climbing Indianapolis Center
Thu 03:08:17 PM 40.3089 -86.1989 22° Northeast 310 357 14,100 3,888 Climbing Indianapolis Center
Thu 03:09:20 PM 40.4003 -86.1422 25° Northeast 352 405 17,200 2,333 Climbing Indianapolis Center
Thu 03:10:23 PM 40.5042 -86.1058 15° North 386 444 19,000 871 Climbing Indianapolis Center
Thu 03:11:24 PM 40.5992 -86.1633 335° Northwest 381 438 19,000 -246 Level Indianapolis Center
Thu 03:12:25 PM 40.6953 -86.2206 336° Northwest 381 438 18,500 -1,210 Descending Indianapolis Center
Thu 03:13:28 PM 40.7886 -86.2769 335° Northwest 375 432 16,500 -2,000 Descending Indianapolis Center
Thu 03:14:31 PM 40.8953 -86.3397 336° Northwest 361 415 14,300 -1,984 Descending Indianapolis Center
Thu 03:15:32 PM 40.9825 -86.3922 336° Northwest 353 406 12,400 -1,623 Descending Indianapolis Center
Thu 03:16:33 PM 41.0581 -86.4556 328° Northwest 336 387 11,000 -1,008 Descending Indianapolis Center
Thu 03:17:37 PM 41.0992 -86.5514 300° West 314 361 10,300 -480 Descending Indianapolis Center
Thu 03:18:38 PM 41.1408 -86.6411 302° West 297 342 10,000 -144 Descending Indianapolis Center
Thu 03:19:42 PM 41.2150 -86.7197 321° Northwest 288 331 10,000  Level Indianapolis Center
Thu 03:21:07 PM 41.2967 -86.8142 319° Northwest 285 328 10,000 -286 Level Chicago Center
Thu 03:22:09 PM 41.3550 -86.8811 319° Northwest 280 322 9,300 -968 Descending Chicago Center
Thu 03:23:11 PM 41.4106 -86.9469 318° Northwest 272 313 8,000 -1,403 Descending Chicago Center
Thu 03:24:13 PM 41.4686 -87.0386 310° West 277 319 6,400 -968 Descending Chicago Center
Thu 03:25:15 PM 41.4986 -87.1292 294° West 270 311 6,000 -194 Descending Chicago Center
Thu 03:26:17 PM 41.5281 -87.2233 293° West 275 316 6,000 -48 Level Chicago Center
Thu 03:27:19 PM 41.5583 -87.3144 294° West 273 314 5,900 -484 Descending Chicago Center
Thu 03:28:21 PM 41.5864 -87.4050 293° West 268 308 5,000 -435 Descending Chicago Center
Thu 03:29:23 PM 41.6211 -87.5119 294° West 266 306 5,000 -242 Level Chicago Center
Thu 03:30:25 PM 41.6528 -87.5667 308° West 217 250 4,500 -823 Descending Chicago Center
Thu 03:31:27 PM 41.6881 -87.6167 313° West 195 224 3,300 -1,056 Descending Chicago Center
Thu 03:32:30 PM 41.7222 -87.6642 314° West 186 214 2,300 -864 Descending Chicago Center
Thu 03:33:32 PM 41.7533 -87.7083 313° West 177 204 1,500 -629 Descending Chicago Center
Thu 03:34:34 PM 41.7853 -87.7536 313° West 168 193 1,000 -484 Descending Chicago Center

Login

Don't have an account? Register now (free) for customized features, flight alerts, and more!